Terminal Aerodrome Forecast
Issued by NWS

Home | Current Version | Previous Version | Text Only | Print | Product List | Glossary On
Versions: 1 2 3 4 5 6 7 8 9 10 11 12 13 14 15 16 17 18 19 20 21 22 23 24 25 26
000
FTUS46 KLOX 201300 AAB
TAFLAX
TAF AMD
KLAX 201322Z 2013/2118 VRB03KT P6SM FEW008 SCT200
     FM201400 VRB03KT 6SM BR SCT008
     FM201700 26006KT P6SM SCT010
     FM202000 26012KT P6SM SKC
     FM210200 25009KT P6SM SKC
     FM210500 VRB03KT P6SM SKC
     FM211100 VRB03KT 5SM BR SKC=

USA.gov is the U.S. government's official web portal to all federal, state and local government web resources and services.